createdAt,value
2023-03-08T00:01:55.778Z,74.30
2023-03-08T00:04:41.339Z,75.30
2023-03-08T00:07:26.945Z,76.30
2023-03-08T00:10:12.989Z,75.80
2023-03-08T00:12:58.896Z,75.80
2023-03-08T00:15:44.585Z,75.70
2023-03-08T00:18:30.527Z,75.90
2023-03-08T00:21:18.368Z,75.70
2023-03-08T00:24:04.348Z,76.00
2023-03-08T00:26:50.098Z,76.30
2023-03-08T00:29:35.860Z,76.30
2023-03-08T00:32:21.415Z,76.30
2023-03-08T00:35:09.313Z,76.30
2023-03-08T00:37:57.542Z,76.10
2023-03-08T00:40:43.155Z,75.90
2023-03-08T00:43:29.577Z,75.80
2023-03-08T00:46:16.013Z,75.90
2023-03-08T00:49:01.420Z,75.90
2023-03-08T00:51:46.931Z,75.90
2023-03-08T00:54:32.586Z,76.00
2023-03-08T00:57:18.161Z,76.30
2023-03-08T01:00:08.292Z,76.30
2023-03-08T01:02:55.395Z,75.80
2023-03-08T01:05:42.856Z,75.80
2023-03-08T01:08:28.658Z,75.10
2023-03-08T01:11:25.283Z,75.30
2023-03-08T01:14:10.917Z,75.30
2023-03-08T01:16:56.630Z,74.80
2023-03-08T01:19:42.180Z,74.40
2023-03-08T01:22:27.777Z,74.30
2023-03-08T01:25:13.715Z,73.80
2023-03-08T01:27:59.502Z,73.70
2023-03-08T01:30:45.532Z,73.60
2023-03-08T01:33:31.801Z,73.70
2023-03-08T01:36:20.019Z,73.50
2023-03-08T01:39:05.654Z,73.50
2023-03-08T01:41:51.336Z,73.50
2023-03-08T01:44:55.144Z,73.20
2023-03-08T01:47:40.938Z,73.00
2023-03-08T01:50:40.730Z,73.60
2023-03-08T01:53:26.769Z,72.60
2023-03-08T01:56:15.490Z,72.60
2023-03-08T01:59:01.979Z,72.70
2023-03-08T02:01:47.600Z,72.50
2023-03-08T02:04:33.308Z,71.70
2023-03-08T02:07:18.997Z,71.70
2023-03-08T02:10:05.314Z,71.70
2023-03-08T02:12:50.882Z,71.20
2023-03-08T02:15:36.885Z,70.70
2023-03-08T02:18:23.104Z,70.70
2023-03-08T02:21:08.856Z,70.70
2023-03-08T02:23:56.175Z,70.70
2023-03-08T02:26:41.654Z,71.30
2023-03-08T02:29:27.352Z,71.40
2023-03-08T02:32:13.637Z,72.00
2023-03-08T02:34:59.224Z,71.70
2023-03-08T02:37:44.897Z,71.70
2023-03-08T02:40:30.293Z,72.00
2023-03-08T02:43:15.818Z,71.60
2023-03-08T02:46:01.407Z,72.50
2023-03-08T02:48:47.049Z,71.70
2023-03-08T02:51:32.978Z,72.10
2023-03-08T02:54:18.466Z,72.20
2023-03-08T02:57:04.302Z,72.40
2023-03-08T02:59:49.988Z,72.50
2023-03-08T03:02:36.259Z,72.90
2023-03-08T03:05:22.001Z,73.00
2023-03-08T03:08:07.547Z,72.90
2023-03-08T03:10:53.624Z,72.80
2023-03-08T03:13:39.443Z,73.10
2023-03-08T03:16:25.524Z,73.20
2023-03-08T03:19:11.734Z,73.10
2023-03-08T03:21:57.618Z,72.80
2023-03-08T03:24:43.131Z,73.00
2023-03-08T03:27:28.759Z,73.30
2023-03-08T03:30:15.264Z,73.00
2023-03-08T03:33:01.780Z,73.00
2023-03-08T03:35:50.381Z,72.50
2023-03-08T03:38:36.705Z,72.40
2023-03-08T03:41:23.959Z,73.40
2023-03-08T03:44:18.880Z,72.90
2023-03-08T03:47:07.198Z,73.00
2023-03-08T03:49:52.888Z,72.90
2023-03-08T03:52:39.823Z,73.20
2023-03-08T03:55:26.015Z,73.40
2023-03-08T03:58:12.099Z,73.80
2023-03-08T04:00:58.335Z,74.30
2023-03-08T04:03:49.351Z,74.50
2023-03-08T04:06:35.772Z,74.20
2023-03-08T04:09:22.854Z,74.10
2023-03-08T04:12:28.675Z,73.90
2023-03-08T04:15:14.756Z,73.80
2023-03-08T04:18:00.918Z,73.30
2023-03-08T04:20:48.896Z,73.00
2023-03-08T04:23:35.222Z,72.60
2023-03-08T04:26:21.909Z,72.80
2023-03-08T04:29:07.919Z,72.70
2023-03-08T04:32:00.068Z,72.90
2023-03-08T04:34:51.464Z,72.70
2023-03-08T04:37:40.527Z,73.30
2023-03-08T04:40:30.443Z,72.70
2023-03-08T04:43:19.587Z,73.10
2023-03-08T04:46:06.700Z,73.50
2023-03-08T04:48:55.472Z,73.50
2023-03-08T04:51:43.174Z,73.60
2023-03-08T04:54:29.555Z,73.20
2023-03-08T04:57:21.369Z,73.40
2023-03-08T05:00:10.174Z,73.40
2023-03-08T05:02:57.949Z,73.20
2023-03-08T05:05:49.148Z,73.60
2023-03-08T05:08:35.819Z,73.50
2023-03-08T05:11:26.748Z,73.10
2023-03-08T05:14:13.247Z,73.10
2023-03-08T05:16:59.998Z,73.10
2023-03-08T05:19:47.210Z,73.10
2023-03-08T05:22:51.401Z,73.30
2023-03-08T05:25:44.906Z,73.40
2023-03-08T05:28:34.800Z,73.10
2023-03-08T05:31:22.233Z,73.00
2023-03-08T05:34:11.239Z,73.00
2023-03-08T05:36:59.826Z,72.90
2023-03-08T05:39:48.309Z,73.00
2023-03-08T05:42:38.274Z,73.30
2023-03-08T05:45:24.549Z,73.20
2023-03-08T05:48:11.213Z,73.40
2023-03-08T05:50:57.820Z,73.70
2023-03-08T05:53:44.832Z,73.40
2023-03-08T05:56:31.368Z,73.30
2023-03-08T05:59:26.816Z,73.40
2023-03-08T06:02:15.563Z,73.30
2023-03-08T06:05:07.970Z,73.30
2023-03-08T06:07:54.106Z,73.30
2023-03-08T06:10:39.608Z,73.50
2023-03-08T06:13:25.685Z,73.60
2023-03-08T06:16:11.373Z,73.80
2023-03-08T06:18:56.970Z,74.40
2023-03-08T06:21:44.194Z,73.90
2023-03-08T06:24:31.730Z,73.80
2023-03-08T06:27:20.513Z,73.70
2023-03-08T06:30:09.257Z,73.50
2023-03-08T06:32:55.444Z,73.90
2023-03-08T06:35:41.669Z,73.60
2023-03-08T06:38:29.886Z,72.50
2023-03-08T06:41:18.334Z,73.50
2023-03-08T06:44:06.942Z,73.20
2023-03-08T06:46:52.829Z,73.30
2023-03-08T06:49:39.456Z,73.60
2023-03-08T06:52:25.005Z,74.00
2023-03-08T06:55:11.772Z,76.00
2023-03-08T06:57:57.412Z,76.10
2023-03-08T07:00:42.978Z,75.50
2023-03-08T07:03:28.442Z,73.10
2023-03-08T07:06:14.752Z,72.90
2023-03-08T07:09:00.408Z,73.20
2023-03-08T07:11:45.963Z,72.90
2023-03-08T07:14:31.700Z,72.50
2023-03-08T07:17:17.007Z,72.90
2023-03-08T07:20:05.694Z,74.40
2023-03-08T07:22:51.793Z,74.30
2023-03-08T07:25:41.949Z,74.00
2023-03-08T07:28:27.736Z,74.90
2023-03-08T07:31:13.558Z,75.90
2023-03-08T07:33:59.115Z,74.40
2023-03-08T07:36:44.858Z,74.10
2023-03-08T07:39:30.383Z,73.90
2023-03-08T07:42:15.878Z,73.50
2023-03-08T07:45:04.761Z,74.10
2023-03-08T07:47:52.506Z,75.10
2023-03-08T07:50:38.212Z,75.90
2023-03-08T07:53:23.938Z,76.30
2023-03-08T07:56:10.367Z,76.90
2023-03-08T07:58:59.354Z,77.00
2023-03-08T08:01:44.919Z,77.60
2023-03-08T08:04:30.612Z,78.20
2023-03-08T08:07:16.466Z,79.10
2023-03-08T08:10:02.388Z,79.30
2023-03-08T08:12:48.079Z,79.00
2023-03-08T08:15:33.788Z,78.10
2023-03-08T08:18:19.304Z,77.90
2023-03-08T08:21:10.742Z,78.90
2023-03-08T08:23:57.992Z,79.20
2023-03-08T08:26:43.622Z,79.80
2023-03-08T08:29:29.380Z,80.10
2023-03-08T08:32:15.111Z,80.10
2023-03-08T08:35:01.120Z,80.10
2023-03-08T08:37:46.816Z,80.50
2023-03-08T08:40:32.487Z,81.10
2023-03-08T08:43:18.427Z,81.10
2023-03-08T08:46:05.635Z,81.00
2023-03-08T08:48:51.419Z,81.60
2023-03-08T08:51:37.118Z,81.80
2023-03-08T08:54:22.967Z,81.70
2023-03-08T08:57:08.373Z,82.50
2023-03-08T08:59:53.929Z,83.00
2023-03-08T09:02:39.621Z,83.40
2023-03-08T09:05:25.273Z,83.70
2023-03-08T09:08:11.670Z,83.90
2023-03-08T09:11:06.174Z,83.60
2023-03-08T09:13:52.604Z,83.60
2023-03-08T09:16:38.514Z,83.90
2023-03-08T09:19:24.415Z,83.20
2023-03-08T09:22:10.647Z,82.90
2023-03-08T09:24:56.396Z,83.30
2023-03-08T09:27:43.000Z,83.50
2023-03-08T09:30:29.567Z,83.60
2023-03-08T09:33:15.166Z,83.60
2023-03-08T09:36:01.240Z,84.00
2023-03-08T09:38:52.185Z,84.50
2023-03-08T09:41:46.133Z,84.80
2023-03-08T09:45:07.958Z,85.80
2023-03-08T09:48:05.202Z,86.40
2023-03-08T09:50:54.940Z,88.40
2023-03-08T09:53:46.849Z,89.80
2023-03-08T09:56:38.421Z,90.30
2023-03-08T09:59:33.570Z,91.10
2023-03-08T10:02:41.233Z,91.20
2023-03-08T10:05:48.656Z,91.90
2023-03-08T10:08:45.434Z,92.20
2023-03-08T10:11:39.787Z,92.50
2023-03-08T10:14:36.230Z,92.50
2023-03-08T10:17:56.770Z,92.90
2023-03-08T10:20:43.390Z,93.80
2023-03-08T10:23:32.658Z,94.20
2023-03-08T10:26:18.777Z,94.30
2023-03-08T10:29:04.524Z,94.80
2023-03-08T10:31:50.311Z,95.10
2023-03-08T10:34:35.801Z,95.80
2023-03-08T10:37:25.390Z,96.00
2023-03-08T10:40:18.745Z,96.40
2023-03-08T10:43:06.453Z,97.10
2023-03-08T10:46:06.873Z,97.50
2023-03-08T10:48:52.970Z,97.60
2023-03-08T10:51:39.083Z,97.80
2023-03-08T10:54:25.894Z,98.10
2023-03-08T10:57:21.912Z,98.00
2023-03-08T11:00:20.336Z,98.70
2023-03-08T11:03:19.495Z,99.20
2023-03-08T11:06:14.474Z,99.90
2023-03-08T11:09:04.713Z,99.90
2023-03-08T11:11:50.185Z,99.50
2023-03-08T11:14:36.876Z,99.80
2023-03-08T11:17:30.860Z,99.90
2023-03-08T11:20:42.546Z,99.90
2023-03-08T11:23:39.641Z,99.90
2023-03-08T11:26:44.684Z,99.90
2023-03-08T11:29:47.893Z,99.90
2023-03-08T11:33:26.136Z,99.90
2023-03-08T11:36:22.650Z,99.90
2023-03-08T11:39:14.270Z,99.90
2023-03-08T11:42:20.853Z,99.90
2023-03-08T11:45:06.848Z,99.90
2023-03-08T11:48:07.293Z,99.70
2023-03-08T11:51:16.406Z,99.90
2023-03-08T11:54:04.804Z,99.90
2023-03-08T11:56:56.987Z,99.90
2023-03-08T11:59:57.424Z,99.90
2023-03-08T12:02:47.353Z,99.90
2023-03-08T12:06:01.315Z,99.90
2023-03-08T12:09:22.663Z,99.90
2023-03-08T12:12:25.368Z,99.90
2023-03-08T12:15:26.875Z,99.90
2023-03-08T12:18:34.437Z,99.90
2023-03-08T12:21:20.218Z,99.90
2023-03-08T12:24:24.961Z,99.90
2023-03-08T12:27:24.175Z,99.70
2023-03-08T12:30:47.798Z,99.90
2023-03-08T12:33:34.153Z,99.70
2023-03-08T12:36:22.533Z,99.60
2023-03-08T12:39:26.703Z,99.40
2023-03-08T12:42:13.305Z,99.20
2023-03-08T12:45:30.988Z,98.80
2023-03-08T12:48:29.237Z,98.10
2023-03-08T12:51:16.382Z,96.80
2023-03-08T12:54:04.463Z,97.30
2023-03-08T12:56:54.129Z,97.90
2023-03-08T12:59:41.208Z,97.70
2023-03-08T13:02:33.298Z,98.00
2023-03-08T13:05:28.490Z,97.70
2023-03-08T13:08:14.242Z,97.80
2023-03-08T13:11:13.812Z,98.20
2023-03-08T13:14:01.613Z,98.30
2023-03-08T13:16:48.026Z,98.50
2023-03-08T13:19:33.904Z,98.50
2023-03-08T13:22:32.040Z,98.90
2023-03-08T13:25:56.763Z,98.20
2023-03-08T13:28:48.182Z,97.00
2023-03-08T13:31:33.990Z,96.50
2023-03-08T13:34:32.165Z,96.40
2023-03-08T13:37:28.667Z,96.40
2023-03-08T13:40:17.128Z,96.40
2023-03-08T13:43:05.554Z,96.70
2023-03-08T13:45:57.904Z,94.50
2023-03-08T13:48:44.785Z,92.60
2023-03-08T13:51:30.732Z,91.10
2023-03-08T13:54:26.900Z,91.60
2023-03-08T13:57:26.748Z,90.30
2023-03-08T14:00:33.710Z,88.00
2023-03-08T14:03:20.766Z,86.50
2023-03-08T14:06:21.509Z,89.00
2023-03-08T14:09:07.552Z,90.30
2023-03-08T14:12:00.829Z,92.00
2023-03-08T14:15:02.428Z,91.80
2023-03-08T14:17:49.906Z,91.70
2023-03-08T14:20:36.251Z,92.30
2023-03-08T14:23:24.590Z,92.60
2023-03-08T14:26:31.021Z,91.70
2023-03-08T14:29:21.734Z,91.10
2023-03-08T14:32:11.055Z,91.30
2023-03-08T14:35:08.137Z,91.60
2023-03-08T14:37:56.130Z,92.00
2023-03-08T14:40:49.224Z,91.90
2023-03-08T14:43:35.434Z,91.80
2023-03-08T14:46:22.856Z,91.40
2023-03-08T14:49:21.190Z,90.60
2023-03-08T14:52:20.204Z,90.70
2023-03-08T14:55:22.469Z,90.60
2023-03-08T14:58:13.699Z,91.40
2023-03-08T15:01:01.365Z,92.20
2023-03-08T15:03:46.999Z,92.60
2023-03-08T15:06:36.036Z,93.10
2023-03-08T15:09:22.670Z,94.10
2023-03-08T15:12:10.160Z,94.50
2023-03-08T15:14:56.010Z,94.60
2023-03-08T15:17:41.717Z,94.80
2023-03-08T15:20:27.598Z,95.40
2023-03-08T15:23:25.208Z,95.50
2023-03-08T15:26:18.191Z,95.90
2023-03-08T15:29:05.202Z,96.10
2023-03-08T15:31:50.949Z,96.30
2023-03-08T15:34:36.599Z,96.50
2023-03-08T15:37:22.402Z,97.10
2023-03-08T15:40:22.275Z,97.60
2023-03-08T15:43:08.648Z,98.40
2023-03-08T15:45:54.310Z,99.90
2023-03-08T15:48:40.079Z,99.90
2023-03-08T15:51:30.684Z,99.90
2023-03-08T15:54:16.642Z,99.90
2023-03-08T15:57:01.856Z,99.90
2023-03-08T15:59:47.718Z,99.90
2023-03-08T16:02:33.086Z,99.90
2023-03-08T16:05:22.662Z,99.90
2023-03-08T16:08:09.545Z,99.90
2023-03-08T16:10:55.421Z,99.90
2023-03-08T16:13:41.857Z,99.90
2023-03-08T16:16:42.541Z,99.90
2023-03-08T16:19:35.198Z,99.90
2023-03-08T16:22:20.760Z,99.90
2023-03-08T16:25:07.755Z,99.90
2023-03-08T16:27:53.571Z,99.90
2023-03-08T16:30:40.977Z,99.90
2023-03-08T16:33:30.281Z,99.90
2023-03-08T16:36:16.508Z,99.90
2023-03-08T16:39:02.679Z,99.90
2023-03-08T16:41:48.163Z,99.90
2023-03-08T16:44:34.090Z,99.90
2023-03-08T16:47:21.424Z,99.90
2023-03-08T16:50:07.588Z,99.90
2023-03-08T16:52:57.483Z,99.90
2023-03-08T16:55:43.398Z,99.90
2023-03-08T16:58:28.896Z,99.90
2023-03-08T17:01:16.569Z,99.90
2023-03-08T17:04:02.374Z,99.90
2023-03-08T17:06:47.962Z,99.90
2023-03-08T17:09:33.458Z,99.90
2023-03-08T17:12:19.548Z,99.90
2023-03-08T17:15:05.524Z,99.90
2023-03-08T17:17:51.126Z,99.90
2023-03-08T17:20:41.347Z,99.90
2023-03-08T17:23:28.093Z,99.90
2023-03-08T17:26:15.154Z,99.90
2023-03-08T17:29:00.958Z,99.90
2023-03-08T17:31:47.165Z,99.90
2023-03-08T17:34:32.781Z,99.90
2023-03-08T17:37:18.818Z,99.90
2023-03-08T17:40:05.200Z,99.90
2023-03-08T17:42:50.759Z,99.90
2023-03-08T17:45:36.214Z,99.90
2023-03-08T17:48:21.964Z,99.90
2023-03-08T17:51:11.264Z,99.90
2023-03-08T17:53:58.415Z,99.90
2023-03-08T17:56:44.067Z,99.90
2023-03-08T17:59:29.699Z,99.90
2023-03-08T18:02:16.594Z,99.90
2023-03-08T18:05:02.485Z,99.90
2023-03-08T18:07:48.559Z,99.90
2023-03-08T18:10:34.049Z,99.90
2023-03-08T18:13:19.651Z,99.90
2023-03-08T18:16:05.711Z,99.90
2023-03-08T18:18:51.776Z,99.90
2023-03-08T18:21:39.988Z,99.90
2023-03-08T18:24:27.545Z,99.90
2023-03-08T18:27:13.292Z,99.90
2023-03-08T18:29:58.949Z,99.90
2023-03-08T18:32:44.480Z,99.90
2023-03-08T18:35:30.052Z,99.90
2023-03-08T18:38:16.255Z,99.90
2023-03-08T18:41:12.191Z,99.90
2023-03-08T18:43:59.203Z,99.90
2023-03-08T18:46:44.874Z,99.90
2023-03-08T18:49:30.368Z,99.90
2023-03-08T18:52:15.898Z,99.90
2023-03-08T18:55:01.541Z,99.90
2023-03-08T18:57:47.476Z,99.90
2023-03-08T19:00:33.827Z,99.90
2023-03-08T19:03:19.736Z,99.90
2023-03-08T19:06:05.552Z,99.90
2023-03-08T19:08:51.239Z,99.90
2023-03-08T19:11:36.901Z,99.90
2023-03-08T19:14:22.442Z,99.90
2023-03-08T19:17:07.939Z,99.90
2023-03-08T19:19:53.348Z,99.90
2023-03-08T19:22:39.739Z,99.90
2023-03-08T19:25:25.373Z,99.90
2023-03-08T19:28:10.931Z,99.90
2023-03-08T19:30:56.426Z,99.90
2023-03-08T19:33:47.394Z,99.90
2023-03-08T19:36:35.359Z,99.90
2023-03-08T19:39:23.951Z,99.90
2023-03-08T19:42:15.030Z,99.90
2023-03-08T19:45:00.840Z,99.90
2023-03-08T19:47:46.327Z,99.90
2023-03-08T19:50:32.008Z,99.90
2023-03-08T19:53:17.626Z,99.90
2023-03-08T19:56:03.381Z,99.90
2023-03-08T19:58:49.123Z,99.90
2023-03-08T20:01:35.844Z,99.90
2023-03-08T20:04:22.476Z,99.90
2023-03-08T20:07:08.058Z,99.90
2023-03-08T20:09:54.584Z,99.90
2023-03-08T20:12:40.341Z,99.90
2023-03-08T20:15:26.168Z,99.90
2023-03-08T20:18:12.088Z,99.90
2023-03-08T20:20:58.986Z,99.90
2023-03-08T20:23:45.265Z,99.90
2023-03-08T20:26:34.013Z,99.90
2023-03-08T20:29:19.891Z,99.90
2023-03-08T20:32:05.654Z,99.90
2023-03-08T20:34:50.872Z,99.90
2023-03-08T20:37:36.588Z,99.90
2023-03-08T20:40:22.260Z,99.90
2023-03-08T20:43:10.942Z,99.90
2023-03-08T20:45:56.749Z,99.90
2023-03-08T20:48:43.834Z,99.90
2023-03-08T20:51:29.631Z,99.90
2023-03-08T20:54:15.740Z,99.90
2023-03-08T20:57:01.429Z,99.90
2023-03-08T20:59:47.543Z,99.90
2023-03-08T21:02:33.105Z,99.90
2023-03-08T21:05:18.794Z,99.90
2023-03-08T21:08:04.934Z,99.90
2023-03-08T21:10:50.842Z,99.90
2023-03-08T21:13:36.687Z,99.90
2023-03-08T21:16:24.729Z,99.90
2023-03-08T21:19:10.865Z,99.90
2023-03-08T21:21:56.776Z,99.90
2023-03-08T21:24:42.513Z,99.90
2023-03-08T21:27:28.216Z,99.90
2023-03-08T21:30:13.997Z,99.90
2023-03-08T21:32:59.618Z,99.90
2023-03-08T21:35:45.201Z,99.90
2023-03-08T21:38:30.999Z,99.90
2023-03-08T21:41:22.239Z,99.90
2023-03-08T21:44:13.104Z,99.90
2023-03-08T21:46:58.882Z,99.90
2023-03-08T21:49:44.925Z,99.90
2023-03-08T21:52:30.587Z,99.90
2023-03-08T21:55:16.190Z,99.90
2023-03-08T21:58:02.337Z,99.90
2023-03-08T22:00:47.846Z,99.90
2023-03-08T22:03:34.709Z,99.90
2023-03-08T22:06:21.411Z,99.90
2023-03-08T22:09:07.738Z,99.90
2023-03-08T22:11:53.863Z,99.90
2023-03-08T22:14:39.369Z,99.90
2023-03-08T22:17:24.926Z,99.90
2023-03-08T22:20:11.574Z,99.90
2023-03-08T22:22:57.192Z,99.90
2023-03-08T22:25:43.300Z,99.90
2023-03-08T22:28:28.925Z,99.90
2023-03-08T22:31:17.753Z,99.90
2023-03-08T22:34:04.131Z,99.90
2023-03-08T22:36:50.008Z,99.90
2023-03-08T22:39:36.943Z,99.90
2023-03-08T22:42:22.628Z,99.90
2023-03-08T22:45:08.725Z,99.90
2023-03-08T22:47:54.375Z,99.90
2023-03-08T22:50:40.543Z,99.90
2023-03-08T22:53:26.139Z,99.90
2023-03-08T22:56:24.406Z,99.90
2023-03-08T22:59:10.992Z,99.90
2023-03-08T23:01:56.802Z,99.90
2023-03-08T23:04:42.232Z,99.90
2023-03-08T23:07:27.602Z,99.90
2023-03-08T23:10:17.099Z,99.90
2023-03-08T23:13:03.247Z,99.90
2023-03-08T23:15:49.357Z,99.90
2023-03-08T23:18:35.430Z,99.90
2023-03-08T23:21:23.499Z,99.90
2023-03-08T23:24:09.038Z,99.90
2023-03-08T23:27:00.135Z,99.90
2023-03-08T23:29:45.660Z,99.90
2023-03-08T23:32:31.138Z,99.90
2023-03-08T23:35:16.993Z,99.90
2023-03-08T23:38:02.727Z,99.90
2023-03-08T23:40:48.193Z,99.90
2023-03-08T23:43:34.934Z,99.90
2023-03-08T23:46:21.473Z,99.90
2023-03-08T23:49:07.053Z,99.90
2023-03-08T23:51:52.778Z,99.90
2023-03-08T23:54:38.153Z,99.90
2023-03-08T23:57:23.805Z,99.90
